LUN weather

Kenneth Kaunda International Airport
Lusaka, Lusaka Province, Zambia

Public forecast

Using degrees Celsius for public forecast. Weather courtesy of forecast.io.

Current aviation weather report (METAR) for Kenneth Kaunda International Airport

Retrieved 2020/02/22 22:00 UTC (36 minutes ago):

FLKK 222200Z VRB01KT CAVOK 21/19 Q1017

Closest aviation forecast (TAF) to Kenneth Kaunda International Airport

Retrieved 2020/02/22 18:00 UTC (5 hours ago):

TAF FLKK 221600Z 2218/2324 07010KT 9999 FEW040CB BKN090 PROB30 TEMPO 2218/2220 9000 -TSRA BECMG 2300/2304 VRB03KT 9999 SCT009 BKN090 BECMG 2306/2310 07005KT 9999 BKN030